sensor_id;sensor_type;location;lat;lon;timestamp;temperature;humidity
27848;DHT22;15212;48.830;8.730;2022-12-29T00:01:10;8.70;99.90
27848;DHT22;15212;48.830;8.730;2022-12-29T00:03:38;8.70;99.90
27848;DHT22;15212;48.830;8.730;2022-12-29T00:06:06;8.80;99.90
27848;DHT22;15212;48.830;8.730;2022-12-29T00:08:35;8.80;99.90
27848;DHT22;15212;48.830;8.730;2022-12-29T00:11:13;8.90;99.90
27848;DHT22;15212;48.830;8.730;2022-12-29T00:13:39;8.90;99.90
27848;DHT22;15212;48.830;8.730;2022-12-29T00:16:26;8.90;99.90
27848;DHT22;15212;48.830;8.730;2022-12-29T00:18:55;8.80;99.90
27848;DHT22;15212;48.830;8.730;2022-12-29T00:21:24;8.70;99.90
27848;DHT22;15212;48.830;8.730;2022-12-29T00:24:21;8.70;99.90
27848;DHT22;15212;48.830;8.730;2022-12-29T00:29:54;8.40;99.90
27848;DHT22;15212;48.830;8.730;2022-12-29T00:32:43;8.20;99.90
27848;DHT22;15212;48.830;8.730;2022-12-29T00:35:37;8.10;99.90
27848;DHT22;15212;48.830;8.730;2022-12-29T00:38:07;7.90;99.90
27848;DHT22;15212;48.830;8.730;2022-12-29T00:40:53;7.80;99.90
27848;DHT22;15212;48.830;8.730;2022-12-29T00:43:40;7.80;99.90
27848;DHT22;15212;48.830;8.730;2022-12-29T00:46:26;8.10;99.90
27848;DHT22;15212;48.830;8.730;2022-12-29T00:48:55;8.40;99.90
27848;DHT22;15212;48.830;8.730;2022-12-29T00:51:40;8.70;99.90
27848;DHT22;15212;48.830;8.730;2022-12-29T00:54:09;8.90;99.90
27848;DHT22;15212;48.830;8.730;2022-12-29T00:56:37;9.10;99.90
27848;DHT22;15212;48.830;8.730;2022-12-29T00:59:08;9.40;99.90
27848;DHT22;15212;48.830;8.730;2022-12-29T01:01:38;9.40;99.90
27848;DHT22;15212;48.830;8.730;2022-12-29T01:04:07;9.50;99.90
27848;DHT22;15212;48.830;8.730;2022-12-29T01:06:37;9.50;99.90
27848;DHT22;15212;48.830;8.730;2022-12-29T01:09:08;9.50;99.90
27848;DHT22;15212;48.830;8.730;2022-12-29T01:11:55;9.60;99.90
27848;DHT22;15212;48.830;8.730;2022-12-29T01:14:24;9.60;99.90
27848;DHT22;15212;48.830;8.730;2022-12-29T01:16:53;9.50;99.90
27848;DHT22;15212;48.830;8.730;2022-12-29T01:19:23;9.60;99.90
27848;DHT22;15212;48.830;8.730;2022-12-29T01:21:51;9.70;99.90
27848;DHT22;15212;48.830;8.730;2022-12-29T01:24:20;9.80;99.90
27848;DHT22;15212;48.830;8.730;2022-12-29T01:26:49;10.00;99.90
27848;DHT22;15212;48.830;8.730;2022-12-29T01:29:18;10.00;99.90
27848;DHT22;15212;48.830;8.730;2022-12-29T01:31:46;10.10;99.90
27848;DHT22;15212;48.830;8.730;2022-12-29T01:34:16;10.20;99.90
27848;DHT22;15212;48.830;8.730;2022-12-29T01:36:45;10.30;99.90
27848;DHT22;15212;48.830;8.730;2022-12-29T01:39:13;10.40;99.90
27848;DHT22;15212;48.830;8.730;2022-12-29T01:41:41;10.50;99.90
27848;DHT22;15212;48.830;8.730;2022-12-29T01:44:47;10.60;99.90
27848;DHT22;15212;48.830;8.730;2022-12-29T01:47:19;10.60;99.90
27848;DHT22;15212;48.830;8.730;2022-12-29T01:49:48;10.60;99.90
27848;DHT22;15212;48.830;8.730;2022-12-29T01:52:18;10.70;99.90
27848;DHT22;15212;48.830;8.730;2022-12-29T01:54:48;10.60;99.90
27848;DHT22;15212;48.830;8.730;2022-12-29T01:57:21;10.60;99.90
27848;DHT22;15212;48.830;8.730;2022-12-29T02:00:00;10.60;99.90
27848;DHT22;15212;48.830;8.730;2022-12-29T02:02:25;10.50;99.90
27848;DHT22;15212;48.830;8.730;2022-12-29T02:04:54;10.50;99.90
27848;DHT22;15212;48.830;8.730;2022-12-29T02:07:25;10.50;99.90
27848;DHT22;15212;48.830;8.730;2022-12-29T02:09:55;10.60;99.90
27848;DHT22;15212;48.830;8.730;2022-12-29T02:12:24;10.60;99.90
27848;DHT22;15212;48.830;8.730;2022-12-29T02:14:55;10.60;99.90
27848;DHT22;15212;48.830;8.730;2022-12-29T02:17:35;10.60;99.90
27848;DHT22;15212;48.830;8.730;2022-12-29T02:26:13;10.50;99.90
27848;DHT22;15212;48.830;8.730;2022-12-29T02:32:02;10.40;99.90
27848;DHT22;15212;48.830;8.730;2022-12-29T02:37:58;10.40;99.90
27848;DHT22;15212;48.830;8.730;2022-12-29T02:40:43;10.40;99.90
27848;DHT22;15212;48.830;8.730;2022-12-29T02:43:31;10.40;99.90
27848;DHT22;15212;48.830;8.730;2022-12-29T02:49:10;10.40;99.90
27848;DHT22;15212;48.830;8.730;2022-12-29T02:52:01;10.40;99.90
27848;DHT22;15212;48.830;8.730;2022-12-29T02:54:36;10.40;99.90
27848;DHT22;15212;48.830;8.730;2022-12-29T02:59:55;10.40;99.90
27848;DHT22;15212;48.830;8.730;2022-12-29T03:05:29;10.50;99.90
27848;DHT22;15212;48.830;8.730;2022-12-29T03:08:26;10.50;99.90
27848;DHT22;15212;48.830;8.730;2022-12-29T03:10:59;10.50;99.90
27848;DHT22;15212;48.830;8.730;2022-12-29T03:13:47;10.50;99.90
27848;DHT22;15212;48.830;8.730;2022-12-29T03:16:55;10.50;99.90
27848;DHT22;15212;48.830;8.730;2022-12-29T03:19:34;10.50;99.90
27848;DHT22;15212;48.830;8.730;2022-12-29T03:22:12;10.50;99.90
27848;DHT22;15212;48.830;8.730;2022-12-29T03:25:12;10.50;99.90
27848;DHT22;15212;48.830;8.730;2022-12-29T03:27:50;10.50;99.90
27848;DHT22;15212;48.830;8.730;2022-12-29T03:30:28;10.50;99.90
27848;DHT22;15212;48.830;8.730;2022-12-29T03:32:59;10.40;99.90
27848;DHT22;15212;48.830;8.730;2022-12-29T03:35:35;10.40;99.90
27848;DHT22;15212;48.830;8.730;2022-12-29T03:38:10;10.40;99.90
27848;DHT22;15212;48.830;8.730;2022-12-29T03:40:39;10.40;99.90
27848;DHT22;15212;48.830;8.730;2022-12-29T03:43:12;10.30;99.90
27848;DHT22;15212;48.830;8.730;2022-12-29T03:45:41;10.30;99.90
27848;DHT22;15212;48.830;8.730;2022-12-29T03:48:09;10.30;99.90
27848;DHT22;15212;48.830;8.730;2022-12-29T03:50:37;10.20;99.90
27848;DHT22;15212;48.830;8.730;2022-12-29T03:53:06;10.20;99.90
27848;DHT22;15212;48.830;8.730;2022-12-29T03:55:34;10.30;99.90
27848;DHT22;15212;48.830;8.730;2022-12-29T03:58:03;10.30;99.90
27848;DHT22;15212;48.830;8.730;2022-12-29T04:00:31;10.30;99.90
27848;DHT22;15212;48.830;8.730;2022-12-29T04:02:59;10.20;99.90
27848;DHT22;15212;48.830;8.730;2022-12-29T04:05:28;10.20;99.90
27848;DHT22;15212;48.830;8.730;2022-12-29T04:07:57;10.20;99.90
27848;DHT22;15212;48.830;8.730;2022-12-29T04:10:26;10.20;99.90
27848;DHT22;15212;48.830;8.730;2022-12-29T04:12:54;10.20;99.90
27848;DHT22;15212;48.830;8.730;2022-12-29T04:15:23;10.20;99.90
27848;DHT22;15212;48.830;8.730;2022-12-29T04:17:52;10.30;99.90
27848;DHT22;15212;48.830;8.730;2022-12-29T04:20:21;10.20;99.90
27848;DHT22;15212;48.830;8.730;2022-12-29T04:23:07;10.20;99.90
27848;DHT22;15212;48.830;8.730;2022-12-29T04:25:36;10.20;99.90
27848;DHT22;15212;48.830;8.730;2022-12-29T04:28:04;10.20;99.90
27848;DHT22;15212;48.830;8.730;2022-12-29T04:30:34;10.10;99.90
27848;DHT22;15212;48.830;8.730;2022-12-29T04:33:02;10.10;99.90
27848;DHT22;15212;48.830;8.730;2022-12-29T04:35:31;10.10;99.90
27848;DHT22;15212;48.830;8.730;2022-12-29T04:37:59;10.10;99.90
27848;DHT22;15212;48.830;8.730;2022-12-29T04:40:28;10.20;99.90
27848;DHT22;15212;48.830;8.730;2022-12-29T04:42:56;10.20;99.90
27848;DHT22;15212;48.830;8.730;2022-12-29T04:45:24;10.20;99.90
27848;DHT22;15212;48.830;8.730;2022-12-29T04:47:53;10.10;99.90
27848;DHT22;15212;48.830;8.730;2022-12-29T04:50:21;10.10;99.90
27848;DHT22;15212;48.830;8.730;2022-12-29T04:52:50;10.10;99.90
27848;DHT22;15212;48.830;8.730;2022-12-29T04:55:18;10.10;99.90
27848;DHT22;15212;48.830;8.730;2022-12-29T04:57:47;10.10;99.90
27848;DHT22;15212;48.830;8.730;2022-12-29T05:00:15;10.00;99.90
27848;DHT22;15212;48.830;8.730;2022-12-29T05:02:44;10.00;99.90
27848;DHT22;15212;48.830;8.730;2022-12-29T05:05:13;10.00;99.90
27848;DHT22;15212;48.830;8.730;2022-12-29T05:07:41;9.90;99.90
27848;DHT22;15212;48.830;8.730;2022-12-29T05:10:10;9.90;99.90
27848;DHT22;15212;48.830;8.730;2022-12-29T05:12:39;9.90;99.90
27848;DHT22;15212;48.830;8.730;2022-12-29T05:15:08;9.90;99.90
27848;DHT22;15212;48.830;8.730;2022-12-29T05:17:37;9.80;99.90
27848;DHT22;15212;48.830;8.730;2022-12-29T05:20:07;9.80;99.90
27848;DHT22;15212;48.830;8.730;2022-12-29T05:22:36;9.90;99.90
27848;DHT22;15212;48.830;8.730;2022-12-29T05:25:05;9.80;99.90
27848;DHT22;15212;48.830;8.730;2022-12-29T05:27:33;9.80;99.90
27848;DHT22;15212;48.830;8.730;2022-12-29T05:30:01;9.80;99.90
27848;DHT22;15212;48.830;8.730;2022-12-29T05:32:30;9.80;99.90
27848;DHT22;15212;48.830;8.730;2022-12-29T05:34:58;9.90;99.90
27848;DHT22;15212;48.830;8.730;2022-12-29T05:37:27;9.90;99.90
27848;DHT22;15212;48.830;8.730;2022-12-29T05:39:55;9.90;99.90
27848;DHT22;15212;48.830;8.730;2022-12-29T05:42:25;9.90;99.90
27848;DHT22;15212;48.830;8.730;2022-12-29T05:44:54;9.90;99.90
27848;DHT22;15212;48.830;8.730;2022-12-29T05:47:22;9.90;99.90
27848;DHT22;15212;48.830;8.730;2022-12-29T05:49:50;9.90;99.90
27848;DHT22;15212;48.830;8.730;2022-12-29T05:52:19;9.90;99.90
27848;DHT22;15212;48.830;8.730;2022-12-29T05:54:48;10.00;99.90
27848;DHT22;15212;48.830;8.730;2022-12-29T05:57:16;10.00;99.90
27848;DHT22;15212;48.830;8.730;2022-12-29T05:59:44;10.00;99.90
27848;DHT22;15212;48.830;8.730;2022-12-29T06:02:13;9.90;99.90
27848;DHT22;15212;48.830;8.730;2022-12-29T06:04:41;9.90;99.90
27848;DHT22;15212;48.830;8.730;2022-12-29T06:07:09;9.90;99.90
27848;DHT22;15212;48.830;8.730;2022-12-29T06:09:38;9.80;99.90
27848;DHT22;15212;48.830;8.730;2022-12-29T06:12:06;9.80;99.90
27848;DHT22;15212;48.830;8.730;2022-12-29T06:14:35;9.80;99.90
27848;DHT22;15212;48.830;8.730;2022-12-29T06:17:03;9.80;99.90
27848;DHT22;15212;48.830;8.730;2022-12-29T06:19:31;9.80;99.90
27848;DHT22;15212;48.830;8.730;2022-12-29T06:22:00;9.80;99.90
27848;DHT22;15212;48.830;8.730;2022-12-29T06:24:28;9.80;99.90
27848;DHT22;15212;48.830;8.730;2022-12-29T06:26:57;9.80;99.90
27848;DHT22;15212;48.830;8.730;2022-12-29T06:29:25;9.80;99.90
27848;DHT22;15212;48.830;8.730;2022-12-29T06:31:54;9.80;99.90
27848;DHT22;15212;48.830;8.730;2022-12-29T06:34:25;9.80;99.90
27848;DHT22;15212;48.830;8.730;2022-12-29T06:36:53;9.80;99.90
27848;DHT22;15212;48.830;8.730;2022-12-29T06:39:22;9.80;99.90
27848;DHT22;15212;48.830;8.730;2022-12-29T06:41:52;9.80;99.90
27848;DHT22;15212;48.830;8.730;2022-12-29T06:44:21;9.90;99.90
27848;DHT22;15212;48.830;8.730;2022-12-29T06:46:50;9.90;99.90
27848;DHT22;15212;48.830;8.730;2022-12-29T06:49:18;9.80;99.90
27848;DHT22;15212;48.830;8.730;2022-12-29T06:51:47;9.80;99.90
27848;DHT22;15212;48.830;8.730;2022-12-29T06:54:15;9.80;99.90
27848;DHT22;15212;48.830;8.730;2022-12-29T06:56:44;9.80;99.90
27848;DHT22;15212;48.830;8.730;2022-12-29T06:59:12;9.80;99.90
27848;DHT22;15212;48.830;8.730;2022-12-29T07:01:41;9.80;99.90
27848;DHT22;15212;48.830;8.730;2022-12-29T07:04:09;9.80;99.90
27848;DHT22;15212;48.830;8.730;2022-12-29T07:06:37;9.80;99.90
27848;DHT22;15212;48.830;8.730;2022-12-29T07:09:08;9.70;99.90
27848;DHT22;15212;48.830;8.730;2022-12-29T07:11:36;9.80;99.90
27848;DHT22;15212;48.830;8.730;2022-12-29T07:14:05;9.80;99.90
27848;DHT22;15212;48.830;8.730;2022-12-29T07:16:33;9.90;99.90
27848;DHT22;15212;48.830;8.730;2022-12-29T07:19:01;9.90;99.90
27848;DHT22;15212;48.830;8.730;2022-12-29T07:21:30;9.90;99.90
27848;DHT22;15212;48.830;8.730;2022-12-29T07:23:59;9.90;99.90
27848;DHT22;15212;48.830;8.730;2022-12-29T07:26:27;9.90;99.90
27848;DHT22;15212;48.830;8.730;2022-12-29T07:28:56;9.90;99.90
27848;DHT22;15212;48.830;8.730;2022-12-29T07:31:24;10.00;99.90
27848;DHT22;15212;48.830;8.730;2022-12-29T07:33:53;10.00;99.90
27848;DHT22;15212;48.830;8.730;2022-12-29T07:36:22;10.10;99.90
27848;DHT22;15212;48.830;8.730;2022-12-29T07:38:50;10.10;99.90
27848;DHT22;15212;48.830;8.730;2022-12-29T07:41:19;10.10;99.90
27848;DHT22;15212;48.830;8.730;2022-12-29T07:43:47;10.10;99.90
27848;DHT22;15212;48.830;8.730;2022-12-29T07:46:16;10.10;99.90
27848;DHT22;15212;48.830;8.730;2022-12-29T07:48:44;10.10;99.90
27848;DHT22;15212;48.830;8.730;2022-12-29T07:51:12;10.20;99.90
27848;DHT22;15212;48.830;8.730;2022-12-29T07:53:41;10.20;99.90
27848;DHT22;15212;48.830;8.730;2022-12-29T07:56:09;10.30;99.90
27848;DHT22;15212;48.830;8.730;2022-12-29T07:58:38;10.30;99.90
27848;DHT22;15212;48.830;8.730;2022-12-29T08:01:06;10.30;99.90
27848;DHT22;15212;48.830;8.730;2022-12-29T08:03:34;10.30;99.90
27848;DHT22;15212;48.830;8.730;2022-12-29T08:06:03;10.30;99.90
27848;DHT22;15212;48.830;8.730;2022-12-29T08:08:31;10.30;99.90
27848;DHT22;15212;48.830;8.730;2022-12-29T08:11:00;10.30;99.90
27848;DHT22;15212;48.830;8.730;2022-12-29T08:13:28;10.40;99.90
27848;DHT22;15212;48.830;8.730;2022-12-29T08:15:58;10.40;99.90
27848;DHT22;15212;48.830;8.730;2022-12-29T08:18:26;10.40;99.90
27848;DHT22;15212;48.830;8.730;2022-12-29T08:20:55;10.50;99.90
27848;DHT22;15212;48.830;8.730;2022-12-29T08:23:23;10.50;99.90
27848;DHT22;15212;48.830;8.730;2022-12-29T08:25:59;10.50;99.90
27848;DHT22;15212;48.830;8.730;2022-12-29T08:28:28;10.60;99.90
27848;DHT22;15212;48.830;8.730;2022-12-29T08:30:59;10.70;99.90
27848;DHT22;15212;48.830;8.730;2022-12-29T08:33:28;10.60;99.90
27848;DHT22;15212;48.830;8.730;2022-12-29T08:36:04;10.70;99.90
27848;DHT22;15212;48.830;8.730;2022-12-29T08:38:34;10.70;99.90
27848;DHT22;15212;48.830;8.730;2022-12-29T08:41:02;10.70;99.90
27848;DHT22;15212;48.830;8.730;2022-12-29T08:43:31;10.80;99.90
27848;DHT22;15212;48.830;8.730;2022-12-29T08:45:59;10.80;99.90
27848;DHT22;15212;48.830;8.730;2022-12-29T08:48:28;10.90;99.90
27848;DHT22;15212;48.830;8.730;2022-12-29T08:50:56;10.90;99.90
27848;DHT22;15212;48.830;8.730;2022-12-29T08:53:25;10.90;99.90
27848;DHT22;15212;48.830;8.730;2022-12-29T08:55:58;11.00;99.90
27848;DHT22;15212;48.830;8.730;2022-12-29T08:58:27;11.00;99.90
27848;DHT22;15212;48.830;8.730;2022-12-29T09:00:57;11.10;99.90
27848;DHT22;15212;48.830;8.730;2022-12-29T09:03:26;11.10;99.90
27848;DHT22;15212;48.830;8.730;2022-12-29T09:05:55;11.10;99.90
27848;DHT22;15212;48.830;8.730;2022-12-29T09:08:23;11.10;99.90
27848;DHT22;15212;48.830;8.730;2022-12-29T09:10:52;11.10;99.90
27848;DHT22;15212;48.830;8.730;2022-12-29T09:13:20;11.10;99.90
27848;DHT22;15212;48.830;8.730;2022-12-29T09:15:57;11.10;99.90
27848;DHT22;15212;48.830;8.730;2022-12-29T09:18:20;11.10;99.90
27848;DHT22;15212;48.830;8.730;2022-12-29T09:20:49;11.20;99.90
27848;DHT22;15212;48.830;8.730;2022-12-29T09:23:19;11.20;99.90
27848;DHT22;15212;48.830;8.730;2022-12-29T09:25:47;11.20;99.90
27848;DHT22;15212;48.830;8.730;2022-12-29T09:28:16;11.20;99.90
27848;DHT22;15212;48.830;8.730;2022-12-29T09:30:44;11.30;99.90
27848;DHT22;15212;48.830;8.730;2022-12-29T09:33:12;11.30;99.90
27848;DHT22;15212;48.830;8.730;2022-12-29T09:35:43;11.30;99.90
27848;DHT22;15212;48.830;8.730;2022-12-29T09:38:12;11.20;99.90
27848;DHT22;15212;48.830;8.730;2022-12-29T09:40:49;11.20;99.90
27848;DHT22;15212;48.830;8.730;2022-12-29T09:46:28;11.10;99.90
27848;DHT22;15212;48.830;8.730;2022-12-29T09:52:11;11.00;99.90
27848;DHT22;15212;48.830;8.730;2022-12-29T09:54:41;10.90;99.90
27848;DHT22;15212;48.830;8.730;2022-12-29T09:57:24;10.80;99.90
27848;DHT22;15212;48.830;8.730;2022-12-29T09:59:52;10.80;99.90
27848;DHT22;15212;48.830;8.730;2022-12-29T10:02:31;10.80;99.90
27848;DHT22;15212;48.830;8.730;2022-12-29T10:05:18;10.80;99.90
27848;DHT22;15212;48.830;8.730;2022-12-29T10:08:22;10.80;99.90
27848;DHT22;15212;48.830;8.730;2022-12-29T10:11:06;10.90;99.90
27848;DHT22;15212;48.830;8.730;2022-12-29T10:16:46;11.00;99.90
27848;DHT22;15212;48.830;8.730;2022-12-29T10:25:25;11.00;99.90
27848;DHT22;15212;48.830;8.730;2022-12-29T10:27:57;10.90;99.90
27848;DHT22;15212;48.830;8.730;2022-12-29T10:30:28;10.80;99.90
27848;DHT22;15212;48.830;8.730;2022-12-29T10:32:58;10.80;99.90
27848;DHT22;15212;48.830;8.730;2022-12-29T10:35:37;10.70;99.90
27848;DHT22;15212;48.830;8.730;2022-12-29T10:38:23;10.70;99.90
27848;DHT22;15212;48.830;8.730;2022-12-29T10:41:20;10.80;99.90
27848;DHT22;15212;48.830;8.730;2022-12-29T10:43:50;10.90;99.90
27848;DHT22;15212;48.830;8.730;2022-12-29T10:46:28;10.90;99.90
27848;DHT22;15212;48.830;8.730;2022-12-29T10:48:58;10.90;99.90
27848;DHT22;15212;48.830;8.730;2022-12-29T10:51:33;11.00;99.90
27848;DHT22;15212;48.830;8.730;2022-12-29T10:56:56;11.20;99.90
27848;DHT22;15212;48.830;8.730;2022-12-29T10:59:29;11.30;99.90
27848;DHT22;15212;48.830;8.730;2022-12-29T11:02:23;11.40;99.90
27848;DHT22;15212;48.830;8.730;2022-12-29T11:05:06;11.50;99.90
27848;DHT22;15212;48.830;8.730;2022-12-29T11:07:57;11.70;99.90
27848;DHT22;15212;48.830;8.730;2022-12-29T11:10:41;11.90;99.90
27848;DHT22;15212;48.830;8.730;2022-12-29T11:13:18;12.00;99.90
27848;DHT22;15212;48.830;8.730;2022-12-29T11:15:51;12.20;99.90
27848;DHT22;15212;48.830;8.730;2022-12-29T11:18:30;12.00;99.90
27848;DHT22;15212;48.830;8.730;2022-12-29T11:21:05;12.00;99.90
27848;DHT22;15212;48.830;8.730;2022-12-29T11:23:41;11.90;99.90
27848;DHT22;15212;48.830;8.730;2022-12-29T11:26:27;11.80;99.90
27848;DHT22;15212;48.830;8.730;2022-12-29T11:29:08;11.80;99.90
27848;DHT22;15212;48.830;8.730;2022-12-29T11:31:50;11.70;99.90
27848;DHT22;15212;48.830;8.730;2022-12-29T11:34:26;11.70;99.90
27848;DHT22;15212;48.830;8.730;2022-12-29T11:37:10;11.50;99.90
27848;DHT22;15212;48.830;8.730;2022-12-29T11:39:57;11.50;99.90
27848;DHT22;15212;48.830;8.730;2022-12-29T11:42:37;11.40;99.90
27848;DHT22;15212;48.830;8.730;2022-12-29T11:45:18;11.30;99.90
27848;DHT22;15212;48.830;8.730;2022-12-29T11:47:44;11.20;99.90
27848;DHT22;15212;48.830;8.730;2022-12-29T11:50:25;11.00;99.90
27848;DHT22;15212;48.830;8.730;2022-12-29T11:52:57;10.90;99.90
27848;DHT22;15212;48.830;8.730;2022-12-29T11:55:29;10.80;99.90
27848;DHT22;15212;48.830;8.730;2022-12-29T11:58:01;10.70;99.90
27848;DHT22;15212;48.830;8.730;2022-12-29T12:00:33;10.60;99.90
27848;DHT22;15212;48.830;8.730;2022-12-29T12:03:07;10.60;99.90
27848;DHT22;15212;48.830;8.730;2022-12-29T12:05:39;10.70;99.90
27848;DHT22;15212;48.830;8.730;2022-12-29T12:14:15;10.70;99.90
27848;DHT22;15212;48.830;8.730;2022-12-29T12:16:57;10.60;99.90
27848;DHT22;15212;48.830;8.730;2022-12-29T12:19:37;10.60;99.90
27848;DHT22;15212;48.830;8.730;2022-12-29T12:22:35;10.60;99.90
27848;DHT22;15212;48.830;8.730;2022-12-29T12:25:20;10.60;99.90
27848;DHT22;15212;48.830;8.730;2022-12-29T12:27:58;10.70;99.90
27848;DHT22;15212;48.830;8.730;2022-12-29T12:30:36;10.80;99.90
27848;DHT22;15212;48.830;8.730;2022-12-29T12:39:19;10.90;99.90
27848;DHT22;15212;48.830;8.730;2022-12-29T12:42:03;10.90;99.90
27848;DHT22;15212;48.830;8.730;2022-12-29T12:47:23;11.00;99.90
27848;DHT22;15212;48.830;8.730;2022-12-29T12:50:20;11.10;99.90
27848;DHT22;15212;48.830;8.730;2022-12-29T12:53:14;11.10;99.90
27848;DHT22;15212;48.830;8.730;2022-12-29T12:59:29;11.10;99.90
27848;DHT22;15212;48.830;8.730;2022-12-29T13:11:25;11.30;99.90
27848;DHT22;15212;48.830;8.730;2022-12-29T13:14:18;11.20;99.90
27848;DHT22;15212;48.830;8.730;2022-12-29T13:20:18;11.20;99.90
27848;DHT22;15212;48.830;8.730;2022-12-29T13:23:02;11.10;99.90
27848;DHT22;15212;48.830;8.730;2022-12-29T13:25:47;11.10;99.90
27848;DHT22;15212;48.830;8.730;2022-12-29T13:28:42;10.90;99.90
27848;DHT22;15212;48.830;8.730;2022-12-29T13:31:32;10.90;99.90
27848;DHT22;15212;48.830;8.730;2022-12-29T13:37:15;10.80;99.90
27848;DHT22;15212;48.830;8.730;2022-12-29T13:40:02;10.80;99.90
27848;DHT22;15212;48.830;8.730;2022-12-29T13:42:32;10.80;99.90
27848;DHT22;15212;48.830;8.730;2022-12-29T13:45:12;10.80;99.90
27848;DHT22;15212;48.830;8.730;2022-12-29T13:47:54;10.80;99.90
27848;DHT22;15212;48.830;8.730;2022-12-29T13:50:21;10.70;99.90
27848;DHT22;15212;48.830;8.730;2022-12-29T13:55:53;10.60;99.90
27848;DHT22;15212;48.830;8.730;2022-12-29T13:58:30;10.60;99.90
27848;DHT22;15212;48.830;8.730;2022-12-29T14:01:28;10.50;99.90
27848;DHT22;15212;48.830;8.730;2022-12-29T14:04:11;10.50;99.90
27848;DHT22;15212;48.830;8.730;2022-12-29T14:06:41;10.50;99.90
27848;DHT22;15212;48.830;8.730;2022-12-29T14:09:42;10.50;99.90
27848;DHT22;15212;48.830;8.730;2022-12-29T14:12:35;10.50;99.90
27848;DHT22;15212;48.830;8.730;2022-12-29T14:17:43;10.60;99.90
27848;DHT22;15212;48.830;8.730;2022-12-29T14:20:20;10.60;99.90
27848;DHT22;15212;48.830;8.730;2022-12-29T14:28:47;10.60;99.90
27848;DHT22;15212;48.830;8.730;2022-12-29T14:36:54;10.70;99.90
27848;DHT22;15212;48.830;8.730;2022-12-29T14:39:43;10.60;99.90
27848;DHT22;15212;48.830;8.730;2022-12-29T14:42:19;10.60;99.90
27848;DHT22;15212;48.830;8.730;2022-12-29T14:50:22;10.50;99.90
27848;DHT22;15212;48.830;8.730;2022-12-29T14:52:53;10.60;99.90
27848;DHT22;15212;48.830;8.730;2022-12-29T14:55:45;10.50;99.90
27848;DHT22;15212;48.830;8.730;2022-12-29T14:58:21;10.60;99.90
27848;DHT22;15212;48.830;8.730;2022-12-29T15:00:55;10.50;99.90
27848;DHT22;15212;48.830;8.730;2022-12-29T15:03:36;10.50;99.90
27848;DHT22;15212;48.830;8.730;2022-12-29T15:06:14;10.50;99.90
27848;DHT22;15212;48.830;8.730;2022-12-29T15:14:33;9.70;99.90
27848;DHT22;15212;48.830;8.730;2022-12-29T15:17:20;9.20;99.90
27848;DHT22;15212;48.830;8.730;2022-12-29T15:19:51;9.00;99.90
27848;DHT22;15212;48.830;8.730;2022-12-29T15:22:20;8.80;99.90
27848;DHT22;15212;48.830;8.730;2022-12-29T15:24:51;8.70;99.90
27848;DHT22;15212;48.830;8.730;2022-12-29T15:27:22;8.60;99.90
27848;DHT22;15212;48.830;8.730;2022-12-29T15:30:03;8.60;99.90
27848;DHT22;15212;48.830;8.730;2022-12-29T15:32:43;8.50;99.90
27848;DHT22;15212;48.830;8.730;2022-12-29T15:35:24;8.40;99.90
27848;DHT22;15212;48.830;8.730;2022-12-29T15:37:54;8.40;99.90
27848;DHT22;15212;48.830;8.730;2022-12-29T15:40:30;8.40;99.90
27848;DHT22;15212;48.830;8.730;2022-12-29T15:43:07;8.30;99.90
27848;DHT22;15212;48.830;8.730;2022-12-29T15:45:44;8.30;99.90
27848;DHT22;15212;48.830;8.730;2022-12-29T15:48:19;8.30;99.90
27848;DHT22;15212;48.830;8.730;2022-12-29T15:50:50;8.30;99.90
27848;DHT22;15212;48.830;8.730;2022-12-29T15:53:25;8.20;99.90
27848;DHT22;15212;48.830;8.730;2022-12-29T15:56:06;8.20;99.90
27848;DHT22;15212;48.830;8.730;2022-12-29T15:58:47;8.10;99.90
27848;DHT22;15212;48.830;8.730;2022-12-29T16:01:31;8.10;99.90
27848;DHT22;15212;48.830;8.730;2022-12-29T16:04:10;8.10;99.90
27848;DHT22;15212;48.830;8.730;2022-12-29T16:06:42;8.10;99.90
27848;DHT22;15212;48.830;8.730;2022-12-29T16:09:29;8.10;99.90
27848;DHT22;15212;48.830;8.730;2022-12-29T16:11:51;8.10;99.90
27848;DHT22;15212;48.830;8.730;2022-12-29T16:14:40;8.10;99.90
27848;DHT22;15212;48.830;8.730;2022-12-29T16:17:16;8.00;99.90
27848;DHT22;15212;48.830;8.730;2022-12-29T16:19:53;8.10;99.90
27848;DHT22;15212;48.830;8.730;2022-12-29T16:22:34;8.10;99.90
27848;DHT22;15212;48.830;8.730;2022-12-29T16:25:42;8.10;99.90
27848;DHT22;15212;48.830;8.730;2022-12-29T16:27:52;8.10;99.90
27848;DHT22;15212;48.830;8.730;2022-12-29T16:30:29;8.00;99.90
27848;DHT22;15212;48.830;8.730;2022-12-29T16:33:01;8.00;99.90
27848;DHT22;15212;48.830;8.730;2022-12-29T16:35:46;8.00;99.90
27848;DHT22;15212;48.830;8.730;2022-12-29T16:38:19;8.00;99.90
27848;DHT22;15212;48.830;8.730;2022-12-29T16:40:59;8.00;99.90
27848;DHT22;15212;48.830;8.730;2022-12-29T16:43:33;8.00;99.90
27848;DHT22;15212;48.830;8.730;2022-12-29T16:48:55;8.10;99.90
27848;DHT22;15212;48.830;8.730;2022-12-29T16:51:32;8.00;99.90
27848;DHT22;15212;48.830;8.730;2022-12-29T16:54:02;8.10;99.90
27848;DHT22;15212;48.830;8.730;2022-12-29T16:56:33;8.10;99.90
27848;DHT22;15212;48.830;8.730;2022-12-29T16:59:26;8.10;99.90
27848;DHT22;15212;48.830;8.730;2022-12-29T17:01:59;8.10;99.90
27848;DHT22;15212;48.830;8.730;2022-12-29T17:04:30;8.10;99.90
27848;DHT22;15212;48.830;8.730;2022-12-29T17:06:58;8.10;99.90
27848;DHT22;15212;48.830;8.730;2022-12-29T17:09:28;8.10;99.90
27848;DHT22;15212;48.830;8.730;2022-12-29T17:11:59;8.10;99.90
27848;DHT22;15212;48.830;8.730;2022-12-29T17:14:43;8.10;99.90
27848;DHT22;15212;48.830;8.730;2022-12-29T17:17:37;8.10;99.90
27848;DHT22;15212;48.830;8.730;2022-12-29T17:20:17;8.10;99.90
27848;DHT22;15212;48.830;8.730;2022-12-29T17:22:48;8.10;99.90
27848;DHT22;15212;48.830;8.730;2022-12-29T17:25:23;8.10;99.90
27848;DHT22;15212;48.830;8.730;2022-12-29T17:27:58;8.10;99.90
27848;DHT22;15212;48.830;8.730;2022-12-29T17:30:32;8.10;99.90
27848;DHT22;15212;48.830;8.730;2022-12-29T17:33:04;8.10;99.90
27848;DHT22;15212;48.830;8.730;2022-12-29T17:35:37;8.10;99.90
27848;DHT22;15212;48.830;8.730;2022-12-29T17:38:22;8.10;99.90
27848;DHT22;15212;48.830;8.730;2022-12-29T17:40:55;8.10;99.90
27848;DHT22;15212;48.830;8.730;2022-12-29T17:43:25;8.00;99.90
27848;DHT22;15212;48.830;8.730;2022-12-29T17:45:56;8.00;99.90
27848;DHT22;15212;48.830;8.730;2022-12-29T17:48:25;8.00;99.90
27848;DHT22;15212;48.830;8.730;2022-12-29T17:50:53;7.90;99.90
27848;DHT22;15212;48.830;8.730;2022-12-29T17:53:25;7.90;99.90
27848;DHT22;15212;48.830;8.730;2022-12-29T17:55:56;7.80;99.90
27848;DHT22;15212;48.830;8.730;2022-12-29T17:58:28;7.70;99.90
27848;DHT22;15212;48.830;8.730;2022-12-29T18:01:02;7.70;99.90
27848;DHT22;15212;48.830;8.730;2022-12-29T18:03:34;7.60;99.90
27848;DHT22;15212;48.830;8.730;2022-12-29T18:06:05;7.60;99.90
27848;DHT22;15212;48.830;8.730;2022-12-29T18:08:34;7.50;99.90